Time;durP1;ratioP1;P1;durP2;ratioP2;P2;SDS_P1;SDS_P2;PMS_P1;PMS_P2;Temp;Humidity;BMP_temperature;BMP_pressure;BME280_temperature;BME280_humidity;BME280_pressure;Samples;Min_cycle;Max_cycle;Signal;HPM_P1;HPM_P2
2023/02/07 00:01:45;;;;;;;;;;;;;;;-5.34;77.83;103521.98;104766;1297;73261;-77
2023/02/07 00:04:31;;;;;;;;;;;;;;;-5.34;77.85;103519.29;104769;1295;60573;-77
2023/02/07 00:07:17;;;;;;;;;;;;;;;-5.36;77.78;103515.55;104755;1291;60340;-77
2023/02/07 00:10:04;;;;;;;;;;;;;;;-5.38;77.79;103508.67;104763;1291;74099;-77
2023/02/07 00:12:50;;;;;;;;;;;;;;;-5.38;77.88;103505.83;104607;1295;67018;-77
2023/02/07 00:15:36;;;;;;;;;;;;;;;-5.36;77.94;103500.27;104721;1294;71726;-77
2023/02/07 00:18:22;;;;;;;;;;;;;;;-5.35;77.90;103495.77;104692;1293;60365;-77
2023/02/07 00:21:10;;;;;;;;;;;;;;;-5.35;77.82;103496.19;104679;1291;60439;-77
2023/02/07 00:23:56;;;;;;;;;;;;;;;-5.36;77.84;103493.02;104809;1291;73522;-76
2023/02/07 00:26:42;;;;;;;;;;;;;;;-5.37;77.82;103506.72;104729;1294;68038;-77
2023/02/07 00:29:29;;;;;;;;;;;;;;;-5.37;77.90;103518.11;104671;1294;71420;-77
2023/02/07 00:32:15;;;;;;;;;;;;;;;-5.35;77.93;103517.00;104758;1291;60400;-76
2023/02/07 00:35:02;;;;;;;;;;;;;;;-5.33;77.93;103523.23;104754;1293;59121;-76
2023/02/07 00:37:49;;;;;;;;;;;;;;;-5.31;77.98;103526.76;104563;1294;72617;-77
2023/02/07 00:40:36;;;;;;;;;;;;;;;-5.34;77.89;103512.41;104727;1296;70115;-77
2023/02/07 00:43:22;;;;;;;;;;;;;;;-5.36;77.89;103509.80;104714;1295;74001;-77
2023/02/07 00:46:09;;;;;;;;;;;;;;;-5.36;77.94;103514.19;104735;1291;60415;-77
2023/02/07 00:48:55;;;;;;;;;;;;;;;-5.39;77.84;103516.63;104768;1291;60372;-77
2023/02/07 00:51:41;;;;;;;;;;;;;;;-5.42;77.85;103520.37;104721;1291;73757;-77
2023/02/07 00:54:27;;;;;;;;;;;;;;;-5.42;77.88;103519.84;104725;1296;67561;-77
2023/02/07 00:57:13;;;;;;;;;;;;;;;-5.44;77.83;103518.15;104737;1292;71048;-77
2023/02/07 00:59:59;;;;;;;;;;;;;;;-5.45;77.88;103523.41;104754;1294;62329;-77
2023/02/07 01:02:45;;;;;;;;;;;;;;;-5.44;77.85;103527.27;104799;1291;62697;-77
2023/02/07 01:05:31;;;;;;;;;;;;;;;-5.43;77.85;103525.00;104790;1296;74586;-77
2023/02/07 01:08:18;;;;;;;;;;;;;;;-5.45;77.77;103521.21;97541;1293;10001685;-77
2023/02/07 01:11:06;;;;;;;;;;;;;;;-5.47;77.79;103520.35;104785;1293;60533;-77
2023/02/07 01:13:52;;;;;;;;;;;;;;;-5.49;77.72;103517.63;104663;1294;60469;-77
2023/02/07 01:16:38;;;;;;;;;;;;;;;-5.53;77.68;103518.11;104670;1292;74550;-77
2023/02/07 01:19:24;;;;;;;;;;;;;;;-5.55;77.64;103511.64;104850;1293;68532;-77
2023/02/07 01:22:10;;;;;;;;;;;;;;;-5.56;77.70;103506.52;100822;1291;5166849;-77
2023/02/07 01:24:56;;;;;;;;;;;;;;;-5.58;77.64;103508.71;104811;1291;60369;-77
2023/02/07 01:27:42;;;;;;;;;;;;;;;-5.62;77.59;103512.70;104810;1291;59078;-77
2023/02/07 01:30:28;;;;;;;;;;;;;;;-5.65;77.66;103504.56;104771;1294;74409;-77
2023/02/07 01:33:14;;;;;;;;;;;;;;;-5.64;77.79;103509.61;104585;1292;67984;-76
2023/02/07 01:36:04;;;;;;;;;;;;;;;-5.67;77.66;103505.87;104712;1293;72545;-77
2023/02/07 01:38:52;;;;;;;;;;;;;;;-5.71;77.61;103505.64;104754;1291;60351;-77
2023/02/07 01:41:38;;;;;;;;;;;;;;;-5.73;77.63;103505.60;104681;1292;59306;-75
2023/02/07 01:44:25;;;;;;;;;;;;;;;-5.74;77.70;103505.55;104809;1297;73787;-76
2023/02/07 01:47:15;;;;;;;;;;;;;;;-5.74;77.70;103510.06;104826;1292;70103;-76
2023/02/07 01:50:01;;;;;;;;;;;;;;;-5.77;77.68;103512.50;104607;1294;73997;-76
2023/02/07 01:52:48;;;;;;;;;;;;;;;-5.77;77.78;103512.59;104731;1294;60991;-77
2023/02/07 01:55:37;;;;;;;;;;;;;;;-5.75;77.76;103510.15;104761;1295;58620;-75
2023/02/07 01:58:23;;;;;;;;;;;;;;;-5.75;77.72;103505.77;104794;1291;72522;-75
2023/02/07 02:01:19;;;;;;;;;;;;;;;-5.76;77.76;103509.20;104777;1292;67184;-75
2023/02/07 02:04:05;;;;;;;;;;;;;;;-5.76;77.73;103505.70;104612;1294;75477;-75
2023/02/07 02:06:52;;;;;;;;;;;;;;;-5.75;77.70;103501.59;104792;1295;60538;-75
2023/02/07 02:09:38;;;;;;;;;;;;;;;-5.77;77.69;103508.77;104772;1293;61385;-75
2023/02/07 02:12:51;;;;;;;;;;;;;;;-5.80;77.62;103516.56;104692;1292;75236;-75
2023/02/07 02:16:03;;;;;;;;;;;;;;;-5.83;77.61;103519.55;104226;1299;67167;-75
2023/02/07 02:19:00;;;;;;;;;;;;;;;-5.83;77.68;103517.63;104257;1299;71391;-75
2023/02/07 02:21:49;;;;;;;;;;;;;;;-5.81;77.74;103517.42;104219;1299;60854;-75
2023/02/07 02:25:10;;;;;;;;;;;;;;;-5.78;77.70;103515.08;104283;1297;59902;-75
2023/02/07 02:28:16;;;;;;;;;;;;;;;-5.75;77.86;103507.64;103901;1308;72708;-75
2023/02/07 02:31:32;;;;;;;;;;;;;;;-5.68;77.83;103508.58;103900;1304;69068;-75
2023/02/07 02:34:36;;;;;;;;;;;;;;;-5.64;77.77;103507.80;103188;1311;71303;-75
2023/02/07 02:37:26;;;;;;;;;;;;;;;-5.60;77.81;103505.15;103165;1312;60498;-75
2023/02/07 02:40:26;;;;;;;;;;;;;;;-5.59;77.83;103502.73;103144;1310;60370;-75
2023/02/07 02:43:17;;;;;;;;;;;;;;;-5.54;77.96;103496.81;103204;1311;72331;-75
2023/02/07 02:46:10;;;;;;;;;;;;;;;-5.48;77.94;103494.52;103258;1313;68482;-75
2023/02/07 02:48:57;;;;;;;;;;;;;;;-5.43;77.98;103496.95;103183;1311;71489;-75
2023/02/07 02:51:43;;;;;;;;;;;;;;;-5.36;78.03;103490.34;103110;1311;292536;-76
2023/02/07 02:54:31;;;;;;;;;;;;;;;-5.29;78.11;103491.48;103443;1308;60234;-75
2023/02/07 02:57:37;;;;;;;;;;;;;;;-5.22;78.14;103490.59;103638;1311;73407;-75
2023/02/07 03:00:59;;;;;;;;;;;;;;;-5.15;78.14;103492.27;103200;1312;68941;-77
2023/02/07 03:03:53;;;;;;;;;;;;;;;-5.07;78.17;103492.20;103012;1314;71445;-77
2023/02/07 03:06:51;;;;;;;;;;;;;;;-5.01;78.18;103489.58;102878;1317;61510;-77
2023/02/07 03:10:13;;;;;;;;;;;;;;;-4.93;78.27;103493.02;102942;1314;60579;-77
2023/02/07 03:12:59;;;;;;;;;;;;;;;-4.86;78.19;103505.72;102703;1316;75401;-78
2023/02/07 03:16:02;;;;;;;;;;;;;;;-4.84;78.23;103495.20;102721;1316;70106;-78
2023/02/07 03:18:56;;;;;;;;;;;;;;;-4.77;78.27;103492.26;102630;1317;71372;-77
2023/02/07 03:21:54;;;;;;;;;;;;;;;-4.71;78.31;103488.48;102630;1315;60320;-77
2023/02/07 03:24:43;;;;;;;;;;;;;;;-4.65;78.30;103486.31;102626;1317;63394;-77
2023/02/07 03:27:30;;;;;;;;;;;;;;;-4.60;78.36;103483.40;102701;1318;72590;-77
2023/02/07 03:30:19;;;;;;;;;;;;;;;-4.55;78.39;103473.76;102730;1319;67263;-78
2023/02/07 03:33:10;;;;;;;;;;;;;;;-4.51;78.33;103468.91;102687;1319;74666;-78
2023/02/07 03:36:01;;;;;;;;;;;;;;;-4.46;78.39;103472.74;102716;1320;62132;-77
2023/02/07 03:38:48;;;;;;;;;;;;;;;-4.41;78.45;103469.64;103807;1308;60600;-77
2023/02/07 03:41:39;;;;;;;;;;;;;;;-4.36;78.47;103472.80;103917;1303;71407;-77
2023/02/07 03:44:27;;;;;;;;;;;;;;;-4.31;78.51;103475.23;103978;1302;67375;-78
2023/02/07 03:47:15;;;;;;;;;;;;;;;-4.26;78.47;103476.41;104273;1294;71273;-77
2023/02/07 03:50:01;;;;;;;;;;;;;;;-4.22;78.48;103474.60;104570;1294;59173;-77
2023/02/07 03:52:48;;;;;;;;;;;;;;;-4.18;78.51;103471.66;104593;1294;59726;-77
2023/02/07 03:55:34;;;;;;;;;;;;;;;-4.14;78.51;103469.66;104649;1294;73501;-78
2023/02/07 03:58:20;;;;;;;;;;;;;;;-4.09;78.59;103473.98;104583;1294;67633;-78
2023/02/07 04:01:06;;;;;;;;;;;;;;;-4.06;78.60;103477.63;104597;1294;72509;-77
2023/02/07 04:03:52;;;;;;;;;;;;;;;-4.03;78.60;103481.82;104578;1294;60538;-77
2023/02/07 04:06:38;;;;;;;;;;;;;;;-3.99;78.59;103484.84;104678;1293;58918;-76
2023/02/07 04:09:24;;;;;;;;;;;;;;;-3.95;78.72;103481.48;104720;1294;74234;-75
2023/02/07 04:12:10;;;;;;;;;;;;;;;-3.91;78.65;103476.08;104654;1294;66723;-76
2023/02/07 04:15:01;;;;;;;;;;;;;;;-3.87;78.72;103475.44;104700;1293;71380;-76
2023/02/07 04:17:47;;;;;;;;;;;;;;;-3.83;78.69;103470.94;104693;1294;58742;-76
2023/02/07 04:20:33;;;;;;;;;;;;;;;-3.80;78.70;103469.88;104683;1293;60394;-76
2023/02/07 04:23:19;;;;;;;;;;;;;;;-3.75;78.72;103471.59;104742;1296;73745;-76
2023/02/07 04:26:05;;;;;;;;;;;;;;;-3.73;78.74;103471.54;104706;1292;67278;-76
2023/02/07 04:28:52;;;;;;;;;;;;;;;-3.71;78.80;103469.02;104730;1294;73024;-75
2023/02/07 04:31:39;;;;;;;;;;;;;;;-3.68;78.81;103463.36;104681;1294;60339;-76
2023/02/07 04:34:25;;;;;;;;;;;;;;;-3.65;78.85;103460.70;104674;1294;60931;-76
2023/02/07 04:37:11;;;;;;;;;;;;;;;-3.63;78.85;103457.14;104694;1291;74090;-76
2023/02/07 04:39:57;;;;;;;;;;;;;;;-3.61;78.79;103462.19;104870;1291;67251;-75
2023/02/07 04:42:44;;;;;;;;;;;;;;;-3.58;78.92;103464.31;104797;1291;71265;-76
2023/02/07 04:45:30;;;;;;;;;;;;;;;-3.56;78.93;103463.52;104695;1293;62467;-76
2023/02/07 04:48:16;;;;;;;;;;;;;;;-3.54;78.86;103457.95;104789;1294;61179;-76
2023/02/07 04:51:04;;;;;;;;;;;;;;;-3.50;79.00;103457.74;104670;1294;72700;-76
2023/02/07 04:53:50;;;;;;;;;;;;;;;-3.47;78.97;103458.34;104829;1296;68592;-76
2023/02/07 04:56:37;;;;;;;;;;;;;;;-3.45;78.96;103452.48;104827;1293;71251;-76
2023/02/07 04:59:23;;;;;;;;;;;;;;;-3.43;78.95;103455.39;104758;1292;58455;-76
2023/02/07 05:02:10;;;;;;;;;;;;;;;-3.40;78.98;103454.23;104719;1294;60556;-75
2023/02/07 05:04:56;;;;;;;;;;;;;;;-3.39;79.07;103448.48;104818;1296;75181;-76
2023/02/07 05:07:42;;;;;;;;;;;;;;;-3.36;79.09;103445.86;104803;1291;68289;-76
2023/02/07 05:10:28;;;;;;;;;;;;;;;-3.32;79.06;103447.34;104882;1291;71168;-76
2023/02/07 05:13:14;;;;;;;;;;;;;;;-3.29;79.08;103447.30;104837;1293;60306;-76
2023/02/07 05:16:01;;;;;;;;;;;;;;;-3.27;79.04;103448.44;104861;1291;61408;-76
2023/02/07 05:18:47;;;;;;;;;;;;;;;-3.26;79.11;103452.27;105709;1293;72438;-76
2023/02/07 05:21:33;;;;;;;;;;;;;;;-3.22;79.16;103459.06;105882;1291;69157;-76
2023/02/07 05:24:19;;;;;;;;;;;;;;;-3.19;79.09;103463.81;105819;1291;71337;-76
2023/02/07 05:27:05;;;;;;;;;;;;;;;-3.15;79.14;103463.98;104665;1294;60065;-76
2023/02/07 05:29:51;;;;;;;;;;;;;;;-3.11;79.17;103466.14;104823;1293;61493;-76
2023/02/07 05:35:43;;;;;;;;;;;;;;;-3.07;79.16;103474.66;104807;1291;68044;-76
2023/02/07 05:38:29;;;;;;;;;;;;;;;-3.04;79.18;103482.15;104817;1292;72140;-76
2023/02/07 05:41:15;;;;;;;;;;;;;;;-3.01;79.17;103483.40;104757;1296;60476;-76
2023/02/07 05:44:02;;;;;;;;;;;;;;;-2.98;79.23;103480.09;104753;1294;60287;-76
2023/02/07 05:46:48;;;;;;;;;;;;;;;-2.97;79.29;103474.29;104717;1293;71926;-76
2023/02/07 05:49:35;;;;;;;;;;;;;;;-2.95;79.30;103465.01;104721;1291;68372;-76
2023/02/07 05:52:21;;;;;;;;;;;;;;;-2.92;79.26;103468.42;104612;1292;72057;-76
2023/02/07 05:55:08;;;;;;;;;;;;;;;-2.90;79.24;103471.14;104737;1294;60238;-76
2023/02/07 05:57:55;;;;;;;;;;;;;;;-2.89;79.28;103459.63;104741;1291;60361;-76
2023/02/07 06:00:41;;;;;;;;;;;;;;;-2.86;79.27;103464.06;104737;1293;72439;-76
2023/02/07 06:03:27;;;;;;;;;;;;;;;-2.83;79.36;103461.44;104752;1296;66213;-76
2023/02/07 06:06:13;;;;;;;;;;;;;;;-2.83;79.27;103461.96;104726;1293;71204;-76
2023/02/07 06:08:59;;;;;;;;;;;;;;;-2.83;79.28;103460.82;104442;1299;60975;-76
2023/02/07 06:11:45;;;;;;;;;;;;;;;-2.82;79.40;103460.75;104776;1293;59843;-76
2023/02/07 06:14:32;;;;;;;;;;;;;;;-2.81;79.40;103466.70;104832;1293;74455;-76
2023/02/07 06:17:18;;;;;;;;;;;;;;;-2.80;79.38;103470.17;104681;1293;68102;-76
2023/02/07 06:20:04;;;;;;;;;;;;;;;-2.78;79.41;103470.89;104641;1296;71073;-76
2023/02/07 06:22:51;;;;;;;;;;;;;;;-2.76;79.44;103470.23;104774;1293;60563;-76
2023/02/07 06:25:37;;;;;;;;;;;;;;;-2.73;79.45;103464.55;104703;1292;59172;-75
2023/02/07 06:28:23;;;;;;;;;;;;;;;-2.70;79.44;103467.63;104792;1294;72610;-76
2023/02/07 06:31:09;;;;;;;;;;;;;;;-2.68;79.50;103462.23;104780;1294;67251;-76
2023/02/07 06:33:55;;;;;;;;;;;;;;;-2.66;79.49;103457.83;104723;1294;71123;-75
2023/02/07 06:36:41;;;;;;;;;;;;;;;-2.63;79.54;103461.42;104688;1294;59394;-75
2023/02/07 06:39:28;;;;;;;;;;;;;;;-2.61;79.54;103469.23;104766;1293;60295;-75
2023/02/07 06:42:14;;;;;;;;;;;;;;;-2.60;79.55;103479.42;104833;1293;72473;-77
2023/02/07 06:45:01;;;;;;;;;;;;;;;-2.59;79.59;103490.33;104762;1294;68068;-78
2023/02/07 06:47:47;;;;;;;;;;;;;;;-2.56;79.58;103492.90;104725;1294;71529;-78
2023/02/07 06:50:33;;;;;;;;;;;;;;;-2.54;79.61;103490.76;104737;1295;60537;-78
2023/02/07 06:53:19;;;;;;;;;;;;;;;-2.51;79.61;103487.39;104572;1293;59280;-78
2023/02/07 06:56:05;;;;;;;;;;;;;;;-2.49;79.66;103484.70;104653;1296;73830;-78
2023/02/07 06:58:51;;;;;;;;;;;;;;;-2.46;79.65;103482.75;104761;1294;70021;-78
2023/02/07 07:01:38;;;;;;;;;;;;;;;-2.43;79.68;103472.19;104660;1291;73144;-78
2023/02/07 07:04:24;;;;;;;;;;;;;;;-2.41;79.66;103466.98;104811;1294;60577;-78
2023/02/07 07:07:10;;;;;;;;;;;;;;;-2.39;79.66;103462.10;104798;1294;59300;-78
2023/02/07 07:09:56;;;;;;;;;;;;;;;-2.36;79.74;103460.98;104696;1297;73286;-78
2023/02/07 07:12:42;;;;;;;;;;;;;;;-2.33;79.71;103464.25;104629;1294;68338;-78
2023/02/07 07:15:28;;;;;;;;;;;;;;;-2.30;79.75;103458.12;98476;1291;10002173;-79
2023/02/07 07:18:14;;;;;;;;;;;;;;;-2.26;79.73;103459.61;105028;1293;72529;-78
2023/02/07 07:21:00;;;;;;;;;;;;;;;-2.23;79.73;103453.27;104736;1294;67270;-78
2023/02/07 07:23:46;;;;;;;;;;;;;;;-2.19;79.80;103449.52;104728;1293;72181;-78
2023/02/07 07:26:32;;;;;;;;;;;;;;;-2.16;79.74;103453.46;104759;1294;60530;-78
2023/02/07 07:29:18;;;;;;;;;;;;;;;-2.14;79.80;103456.88;104764;1296;60468;-78
2023/02/07 07:32:05;;;;;;;;;;;;;;;-2.12;79.82;103462.77;104718;1294;73818;-77
2023/02/07 07:34:51;;;;;;;;;;;;;;;-2.09;79.80;103467.73;104824;1292;67527;-78
2023/02/07 07:37:38;;;;;;;;;;;;;;;-2.07;79.83;103474.35;104493;1293;75396;-77
2023/02/07 07:40:24;;;;;;;;;;;;;;;-2.04;79.83;103470.37;104694;1293;60450;-77
2023/02/07 07:43:10;;;;;;;;;;;;;;;-2.01;79.94;103471.08;104650;1295;60548;-77
2023/02/07 07:45:58;;;;;;;;;;;;;;;-1.98;79.88;103474.66;104847;1293;75258;-77
2023/02/07 07:48:44;;;;;;;;;;;;;;;-1.95;79.93;103470.52;104759;1294;67454;-78
2023/02/07 07:51:31;;;;;;;;;;;;;;;-1.91;79.93;103466.14;104754;1291;71389;-78
2023/02/07 07:54:17;;;;;;;;;;;;;;;-1.87;79.92;103464.39;104657;1294;60402;-78
2023/02/07 07:57:03;;;;;;;;;;;;;;;-1.85;79.90;103468.02;104635;1294;60375;-78
2023/02/07 07:59:49;;;;;;;;;;;;;;;-1.81;79.91;103474.52;104671;1294;73217;-77
2023/02/07 08:02:35;;;;;;;;;;;;;;;-1.79;79.92;103478.78;104630;1297;70057;-78
2023/02/07 08:05:21;;;;;;;;;;;;;;;-1.75;79.97;103480.09;104744;1295;74128;-78
2023/02/07 08:08:08;;;;;;;;;;;;;;;-1.73;80.00;103477.59;104654;1293;60434;-78
2023/02/07 08:10:59;;;;;;;;;;;;;;;-1.69;79.94;103475.70;104898;1291;60602;-78
2023/02/07 08:13:45;;;;;;;;;;;;;;;-1.65;80.05;103476.81;104794;1296;73574;-78
2023/02/07 08:16:31;;;;;;;;;;;;;;;-1.62;80.08;103480.78;104681;1294;70733;-78
2023/02/07 08:19:17;;;;;;;;;;;;;;;-1.59;80.05;103485.27;104834;1295;73617;-78
2023/02/07 08:22:04;;;;;;;;;;;;;;;-1.56;80.01;103490.73;104824;1291;60667;-78
2023/02/07 08:24:50;;;;;;;;;;;;;;;-1.51;80.02;103497.86;104825;1296;60498;-78
2023/02/07 08:27:37;;;;;;;;;;;;;;;-1.47;79.98;103498.70;104792;1296;76520;-78
2023/02/07 08:30:23;;;;;;;;;;;;;;;-1.44;80.02;103503.89;104803;1294;68027;-78
2023/02/07 08:33:10;;;;;;;;;;;;;;;-1.41;79.99;103509.73;104728;1293;74033;-78
2023/02/07 08:35:56;;;;;;;;;;;;;;;-1.38;80.09;103516.88;104748;1291;59179;-78
2023/02/07 08:38:42;;;;;;;;;;;;;;;-1.35;80.14;103523.91;104784;1296;60420;-78
2023/02/07 08:41:29;;;;;;;;;;;;;;;-1.33;80.09;103528.77;104749;1296;72459;-78
2023/02/07 08:44:15;;;;;;;;;;;;;;;-1.31;80.10;103529.41;104664;1294;66779;-78
2023/02/07 08:47:02;;;;;;;;;;;;;;;-1.27;80.10;103524.46;104787;1294;72830;-78
2023/02/07 08:49:48;;;;;;;;;;;;;;;-1.24;80.13;103519.33;104686;1294;60463;-79
2023/02/07 08:52:34;;;;;;;;;;;;;;;-1.20;80.15;103516.09;104649;1294;59272;-78
2023/02/07 08:55:20;;;;;;;;;;;;;;;-1.16;80.17;103514.36;104728;1293;73628;-78
2023/02/07 08:58:06;;;;;;;;;;;;;;;-1.14;80.20;103520.65;104626;1295;67127;-78
2023/02/07 09:00:53;;;;;;;;;;;;;;;-1.12;80.17;103523.83;104658;1294;72123;-78
2023/02/07 09:03:39;;;;;;;;;;;;;;;-1.10;80.18;103520.42;104711;1293;61588;-78
2023/02/07 09:06:25;;;;;;;;;;;;;;;-1.08;80.30;103522.98;104647;1292;60280;-79
2023/02/07 09:09:11;;;;;;;;;;;;;;;-1.04;80.31;103520.58;104696;1294;73909;-78
2023/02/07 09:11:57;;;;;;;;;;;;;;;-1.01;80.28;103522.64;104667;1292;67172;-78
2023/02/07 09:14:44;;;;;;;;;;;;;;;-1.01;80.30;103520.30;104734;1294;72395;-78
2023/02/07 09:17:30;;;;;;;;;;;;;;;-0.98;80.29;103524.91;104647;1293;58835;-78
2023/02/07 09:20:17;;;;;;;;;;;;;;;-0.93;80.31;103528.64;104652;1294;60463;-78
2023/02/07 09:23:18;;;;;;;;;;;;;;;-0.88;80.40;103529.71;104667;1297;72558;-79
2023/02/07 09:26:06;;;;;;;;;;;;;;;-0.83;80.32;103532.30;104783;1293;66396;-79
2023/02/07 09:28:52;;;;;;;;;;;;;;;-0.79;80.37;103538.55;104700;1297;72068;-78
2023/02/07 09:31:38;;;;;;;;;;;;;;;-0.80;80.31;103542.54;104785;1291;60350;-78
2023/02/07 09:34:24;;;;;;;;;;;;;;;-0.80;80.33;103546.92;104638;1296;59204;-79
2023/02/07 09:37:10;;;;;;;;;;;;;;;-0.76;80.46;103551.48;104644;1294;72940;-79
2023/02/07 09:39:56;;;;;;;;;;;;;;;-0.75;80.36;103558.05;104811;1295;67524;-79
2023/02/07 09:42:49;;;;;;;;;;;;;;;-0.71;80.39;103562.23;104839;1295;73009;-79
2023/02/07 09:45:38;;;;;;;;;;;;;;;-0.67;80.42;103557.27;104826;1296;62571;-79
2023/02/07 09:48:36;;;;;;;;;;;;;;;-0.64;80.45;103554.46;104776;1297;60456;-79
2023/02/07 09:51:23;;;;;;;;;;;;;;;-0.60;80.45;103559.19;104673;1295;72467;-79
2023/02/07 09:54:29;;;;;;;;;;;;;;;-0.56;80.44;103561.30;104706;1294;69804;-78
2023/02/07 09:57:18;;;;;;;;;;;;;;;-0.52;80.39;103565.68;104763;1294;74449;-78
2023/02/07 10:00:08;;;;;;;;;;;;;;;-0.49;80.42;103565.56;104655;1297;60475;-78
2023/02/07 10:02:55;;;;;;;;;;;;;;;-0.46;80.39;103558.02;104750;1292;60310;-78
2023/02/07 10:05:42;;;;;;;;;;;;;;;-0.42;80.40;103547.63;104706;1292;75233;-79
2023/02/07 10:08:28;;;;;;;;;;;;;;;-0.38;80.41;103550.18;104791;1292;68152;-79
2023/02/07 10:11:35;;;;;;;;;;;;;;;-0.35;80.37;103551.77;104751;1292;71211;-79
2023/02/07 10:14:39;;;;;;;;;;;;;;;-0.32;80.39;103548.77;104320;1299;60407;-79
2023/02/07 10:17:29;;;;;;;;;;;;;;;-0.28;80.42;103551.91;104317;1301;59979;-79
2023/02/07 10:20:18;;;;;;;;;;;;;;;-0.25;80.40;103550.27;104256;1302;73652;-79
2023/02/07 10:23:29;;;;;;;;;;;;;;;-0.22;80.43;103552.52;104373;1297;67265;-79
2023/02/07 10:26:31;;;;;;;;;;;;;;;-0.19;80.33;103554.11;104359;1299;71352;-79
2023/02/07 10:29:17;;;;;;;;;;;;;;;-0.16;80.37;103549.61;104263;1297;60366;-79
2023/02/07 10:32:23;;;;;;;;;;;;;;;-0.14;80.40;103542.99;104378;1301;59583;-79
2023/02/07 10:35:36;;;;;;;;;;;;;;;-0.09;80.47;103535.58;104294;1298;71656;-79
2023/02/07 10:38:29;;;;;;;;;;;;;;;-0.05;80.46;103536.55;103716;1305;69646;-78
2023/02/07 10:41:21;;;;;;;;;;;;;;;-0.02;80.42;103537.25;103753;1310;71288;-79
2023/02/07 10:44:16;;;;;;;;;;;;;;;0.01;80.45;103529.66;104686;1304;58786;-79
2023/02/07 10:47:04;;;;;;;;;;;;;;;0.05;80.40;103529.78;104532;1305;60010;-79
2023/02/07 10:49:52;;;;;;;;;;;;;;;0.07;80.35;103522.45;104614;1307;72965;-80
2023/02/07 10:52:41;;;;;;;;;;;;;;;0.10;80.38;103523.02;104995;1300;67203;-79
2023/02/07 10:55:40;;;;;;;;;;;;;;;0.14;80.39;103519.94;104976;1299;73106;-79
2023/02/07 10:58:36;;;;;;;;;;;;;;;0.18;80.36;103518.38;105070;1305;58522;-79
2023/02/07 11:01:24;;;;;;;;;;;;;;;0.21;80.41;103518.59;104940;1300;60684;-80
2023/02/07 11:04:31;;;;;;;;;;;;;;;0.24;80.32;103512.84;105038;1305;73728;-79
2023/02/07 11:07:20;;;;;;;;;;;;;;;0.27;80.37;103509.86;105069;1300;67373;-79
2023/02/07 11:10:14;;;;;;;;;;;;;;;0.30;80.32;103503.30;105041;1300;72116;-79
2023/02/07 11:13:00;;;;;;;;;;;;;;;0.33;80.37;103491.30;104942;1299;58898;-79
2023/02/07 11:15:52;;;;;;;;;;;;;;;0.37;80.34;103485.25;105390;1294;58598;-79
2023/02/07 11:18:40;;;;;;;;;;;;;;;0.40;80.34;103478.23;105575;1293;73135;-79
2023/02/07 11:21:37;;;;;;;;;;;;;;;0.42;80.31;103472.28;105624;1294;69391;-79
2023/02/07 11:24:30;;;;;;;;;;;;;;;0.44;80.26;103464.42;105581;1294;72615;-79
2023/02/07 11:27:18;;;;;;;;;;;;;;;0.45;80.25;103465.52;105592;1296;58551;-79
2023/02/07 11:30:09;;;;;;;;;;;;;;;0.46;80.23;103455.91;105442;1294;58677;-79
2023/02/07 11:32:57;;;;;;;;;;;;;;;0.49;80.27;103457.50;105558;1297;73777;-78
2023/02/07 11:36:21;;;;;;;;;;;;;;;0.53;80.29;103456.38;105597;1292;68543;-79
2023/02/07 11:39:14;;;;;;;;;;;;;;;0.56;80.23;103455.73;105048;1300;73225;-78
2023/02/07 11:42:01;;;;;;;;;;;;;;;0.57;80.14;103458.05;105041;1303;59195;-79
2023/02/07 11:44:48;;;;;;;;;;;;;;;0.58;80.15;103455.39;104952;1300;59935;-79
2023/02/07 11:47:37;;;;;;;;;;;;;;;0.62;80.16;103453.92;105040;1300;73714;-79
2023/02/07 11:50:25;;;;;;;;;;;;;;;0.66;80.25;103447.77;105015;1305;67582;-79
2023/02/07 11:53:23;;;;;;;;;;;;;;;0.71;80.19;103445.71;104998;1300;71401;-79
2023/02/07 11:56:27;;;;;;;;;;;;;;;0.74;80.14;103448.34;105009;1300;58399;-78
2023/02/07 11:59:19;;;;;;;;;;;;;;;0.79;80.17;103451.90;104992;1300;58661;-78
2023/02/07 12:02:16;;;;;;;;;;;;;;;0.82;80.11;103445.00;104990;1300;73231;-78
2023/02/07 12:05:15;;;;;;;;;;;;;;;0.86;80.05;103442.77;104910;1300;68627;-79
2023/02/07 12:08:05;;;;;;;;;;;;;;;0.91;80.02;103439.84;104966;1300;71208;-80
2023/02/07 12:10:57;;;;;;;;;;;;;;;0.94;80.04;103437.33;104088;1302;61323;-79
2023/02/07 12:13:47;;;;;;;;;;;;;;;0.95;80.00;103436.88;104517;1297;60459;-79
2023/02/07 12:16:37;;;;;;;;;;;;;;;0.93;79.94;103437.62;104719;1294;73007;-79
2023/02/07 12:19:34;;;;;;;;;;;;;;;0.93;79.90;103439.81;104677;1297;66405;-79
2023/02/07 12:22:40;;;;;;;;;;;;;;;0.91;79.91;103439.89;104792;1295;71156;-79
2023/02/07 12:25:28;;;;;;;;;;;;;;;0.91;79.95;103440.84;104765;1294;60345;-79
2023/02/07 12:28:23;;;;;;;;;;;;;;;0.92;79.96;103443.85;104766;1292;59187;-79
2023/02/07 12:31:15;;;;;;;;;;;;;;;0.93;79.96;103445.44;104665;1295;75238;-79
2023/02/07 12:34:08;;;;;;;;;;;;;;;0.91;79.91;103448.89;104838;1295;67475;-79
2023/02/07 12:36:59;;;;;;;;;;;;;;;0.90;79.87;103447.09;104683;1294;71149;-79
2023/02/07 12:39:49;;;;;;;;;;;;;;;0.88;79.89;103442.18;104731;1297;58833;-79
2023/02/07 12:43:02;;;;;;;;;;;;;;;0.87;79.89;103440.57;104728;1293;60565;-79
2023/02/07 12:46:21;;;;;;;;;;;;;;;0.85;79.87;103441.11;104162;1300;72601;-79
2023/02/07 12:49:27;;;;;;;;;;;;;;;0.82;79.75;103442.80;103785;1307;67471;-79
2023/02/07 12:52:39;;;;;;;;;;;;;;;0.81;79.80;103443.25;103064;1312;71204;-79
2023/02/07 12:55:39;;;;;;;;;;;;;;;0.80;79.86;103441.96;102527;1317;60753;-79
2023/02/07 12:58:26;;;;;;;;;;;;;;;0.81;79.73;103431.99;102588;1317;60119;-79
2023/02/07 13:01:32;;;;;;;;;;;;;;;0.83;79.75;103426.08;102451;1318;72109;-79
2023/02/07 13:04:38;;;;;;;;;;;;;;;0.85;79.84;103424.16;102244;1321;69248;-79
2023/02/07 13:07:44;;;;;;;;;;;;;;;0.85;79.75;103422.30;102189;1321;74357;-79
2023/02/07 13:10:37;;;;;;;;;;;;;;;0.85;79.71;103431.14;101648;1332;61297;-79
2023/02/07 13:13:29;;;;;;;;;;;;;;;0.83;79.66;103431.66;101681;1329;59852;-79
2023/02/07 13:16:18;;;;;;;;;;;;;;;0.83;79.72;103427.73;101649;1332;73095;-79
2023/02/07 13:19:10;;;;;;;;;;;;;;;0.82;79.68;103420.20;101662;1332;67402;-79
2023/02/07 13:22:16;;;;;;;;;;;;;;;0.82;79.62;103424.09;101686;1332;71165;-79
2023/02/07 13:25:06;;;;;;;;;;;;;;;0.82;79.69;103422.91;101823;1328;60082;-78
2023/02/07 13:27:54;;;;;;;;;;;;;;;0.82;79.69;103424.45;101969;1329;61660;-78
2023/02/07 13:30:41;;;;;;;;;;;;;;;0.82;79.70;103422.91;102353;1318;73171;-78
2023/02/07 13:33:33;;;;;;;;;;;;;;;0.82;79.66;103428.70;102922;1315;70133;-78
2023/02/07 13:36:37;;;;;;;;;;;;;;;0.81;79.71;103429.33;102987;1315;74091;-78
2023/02/07 13:39:42;;;;;;;;;;;;;;;0.79;79.64;103427.13;102925;1317;60342;-78
2023/02/07 13:42:35;;;;;;;;;;;;;;;0.77;79.65;103426.48;103587;1310;60463;-78
2023/02/07 13:45:42;;;;;;;;;;;;;;;0.77;79.65;103423.40;103698;1306;75117;-78
2023/02/07 13:48:42;;;;;;;;;;;;;;;0.77;79.63;103417.48;103461;1308;69938;-78
2023/02/07 13:51:48;;;;;;;;;;;;;;;0.76;79.65;103424.58;103591;1309;75409;-78
2023/02/07 13:54:55;;;;;;;;;;;;;;;0.77;79.65;103427.80;103085;1312;61477;-79
2023/02/07 14:00:47;;;;;;;;;;;;;;;0.76;79.61;103420.45;102895;1317;75092;-78
2023/02/07 14:03:34;;;;;;;;;;;;;;;0.76;79.64;103417.73;103770;1309;68071;-78
2023/02/07 14:06:21;;;;;;;;;;;;;;;0.75;79.65;103419.20;103711;1306;71960;-78
2023/02/07 14:09:34;;;;;;;;;;;;;;;0.74;79.64;103422.34;103761;1304;61522;-79
2023/02/07 14:12:31;;;;;;;;;;;;;;;0.72;79.62;103422.38;103200;1313;61112;-78
2023/02/07 14:15:49;;;;;;;;;;;;;;;0.71;79.61;103420.31;103291;1312;73276;-79
2023/02/07 14:18:37;;;;;;;;;;;;;;;0.67;79.65;103414.77;103187;1320;67349;-82
2023/02/07 14:21:31;;;;;;;;;;;;;;;0.65;79.59;103407.13;103096;1315;73144;-83
2023/02/07 14:24:18;;;;;;;;;;;;;;;0.63;79.56;103412.30;103191;1318;61240;-80
2023/02/07 14:27:04;;;;;;;;;;;;;;;0.63;79.59;103412.98;103586;1315;61419;-81
2023/02/07 14:29:53;;;;;;;;;;;;;;;0.63;79.52;103413.11;103497;1312;74515;-81
2023/02/07 14:32:43;;;;;;;;;;;;;;;0.63;79.54;103414.82;104002;1311;70047;-80